Time;durP1;ratioP1;P1;durP2;ratioP2;P2;SDS_P1;SDS_P2;PMS_P1;PMS_P2;Temp;Humidity;BMP_temperature;BMP_pressure;BME280_temperature;BME280_humidity;BME280_pressure;Samples;Min_cycle;Max_cycle;Signal;HPM_P1;HPM_P2
2023/10/07 00:00:59;;;;;;;16.75;5.93;;;10.30;99.90;;;;;;4959749;28;20079;-65
2023/10/07 00:03:25;;;;;;;12.15;5.75;;;10.30;99.90;;;;;;4963449;28;20050;-68
2023/10/07 00:06:00;;;;;;;12.73;5.70;;;10.20;99.90;;;;;;4964376;28;20023;-68
2023/10/07 00:08:27;;;;;;;11.02;5.15;;;10.10;99.90;;;;;;4967335;28;20584;-67
2023/10/07 00:10:58;;;;;;;10.70;4.97;;;10.10;99.90;;;;;;4966845;28;20034;-68
2023/10/07 00:13:26;;;;;;;13.25;5.45;;;10.10;99.90;;;;;;4963746;28;20380;-68
2023/10/07 00:15:53;;;;;;;16.35;5.43;;;10.10;99.90;;;;;;4997003;28;20121;-68
2023/10/07 00:18:19;;;;;;;14.60;5.90;;;10.10;99.90;;;;;;4963128;28;20482;-68
2023/10/07 00:20:55;;;;;;;12.90;5.40;;;10.10;99.90;;;;;;4962929;28;20091;-69
2023/10/07 00:23:22;;;;;;;15.77;5.53;;;10.10;99.90;;;;;;4965480;28;20076;-68
2023/10/07 00:25:53;;;;;;;15.60;5.90;;;10.10;99.90;;;;;;4964092;28;20361;-69
2023/10/07 00:28:32;;;;;;;10.57;5.53;;;10.10;99.90;;;;;;4965900;28;20454;-69
2023/10/07 00:31:12;;;;;;;11.55;5.32;;;10.10;99.90;;;;;;4966356;28;20023;-69
2023/10/07 00:34:02;;;;;;;9.95;5.30;;;10.00;99.90;;;;;;4994371;28;20486;-69
2023/10/07 00:39:03;;;;;;;17.88;6.15;;;10.10;99.90;;;;;;4965318;28;20038;-68
2023/10/07 00:41:39;;;;;;;9.98;4.97;;;10.10;99.90;;;;;;4963834;28;20022;-69
2023/10/07 00:44:18;;;;;;;11.90;5.20;;;10.10;99.90;;;;;;4966297;28;20057;-67
2023/10/07 00:46:55;;;;;;;12.45;5.13;;;10.10;99.90;;;;;;4964341;28;20027;-68
2023/10/07 00:49:22;;;;;;;9.85;5.43;;;10.10;99.90;;;;;;4964052;28;20030;-69
2023/10/07 00:51:49;;;;;;;13.57;5.70;;;10.00;99.90;;;;;;4966610;28;20035;-67
2023/10/07 00:54:30;;;;;;;11.55;5.97;;;10.00;99.90;;;;;;4970233;28;20468;-66
2023/10/07 00:57:10;;;;;;;13.05;4.88;;;10.00;99.90;;;;;;4969166;28;20023;-67
2023/10/07 00:59:49;;;;;;;8.57;4.70;;;10.10;99.90;;;;;;4970192;28;20086;-68
2023/10/07 01:02:28;;;;;;;11.52;5.05;;;10.10;99.90;;;;;;4970285;28;20046;-68
2023/10/07 01:04:59;;;;;;;12.32;5.25;;;10.00;99.90;;;;;;4968531;28;20035;-69
2023/10/07 01:07:27;;;;;;;13.30;5.78;;;10.00;99.90;;;;;;4985581;28;20047;-68
2023/10/07 01:09:59;;;;;;;11.20;5.13;;;10.00;99.90;;;;;;4969598;28;20035;-65
2023/10/07 01:12:25;;;;;;;11.85;5.25;;;10.00;99.90;;;;;;4962347;28;20026;-65
2023/10/07 01:14:52;;;;;;;14.20;5.18;;;9.90;99.90;;;;;;4966207;28;20039;-68
2023/10/07 01:17:26;;;;;;;10.20;4.82;;;9.90;99.90;;;;;;4969507;28;20082;-66
2023/10/07 01:19:54;;;;;;;8.75;4.68;;;9.90;99.90;;;;;;4968087;28;20042;-66
2023/10/07 01:22:23;;;;;;;8.13;5.03;;;9.90;99.90;;;;;;4969727;28;20042;-66
2023/10/07 01:24:49;;;;;;;13.73;5.38;;;9.80;99.90;;;;;;4969294;28;20039;-68
2023/10/07 01:27:28;;;;;;;14.83;5.90;;;9.90;99.90;;;;;;4976056;28;20031;-68
2023/10/07 01:30:13;;;;;;;9.25;5.20;;;9.80;99.90;;;;;;4973698;28;20027;-69
2023/10/07 01:32:48;;;;;;;10.55;5.30;;;9.80;99.90;;;;;;4969685;28;20538;-69
2023/10/07 01:35:14;;;;;;;12.88;5.60;;;9.80;99.90;;;;;;4967338;28;20054;-68
2023/10/07 01:37:52;;;;;;;15.35;5.38;;;9.70;99.90;;;;;;4969107;28;20039;-69
2023/10/07 01:40:18;;;;;;;13.10;5.30;;;9.70;99.90;;;;;;4969147;28;20165;-66
2023/10/07 01:42:44;;;;;;;10.25;6.00;;;9.60;99.90;;;;;;4966943;28;20537;-67
2023/10/07 01:45:20;;;;;;;12.70;5.40;;;9.70;99.90;;;;;;4996958;28;20412;-68
2023/10/07 01:47:47;;;;;;;11.15;5.88;;;9.60;99.90;;;;;;4967626;28;20033;-68
2023/10/07 01:50:14;;;;;;;17.70;5.72;;;9.60;99.90;;;;;;4967072;28;20938;-69
2023/10/07 01:52:39;;;;;;;10.07;5.60;;;9.50;99.90;;;;;;4968069;28;20503;-68
2023/10/07 01:55:09;;;;;;;13.43;6.37;;;9.60;99.90;;;;;;5000204;28;20035;-68
2023/10/07 01:57:35;;;;;;;19.42;5.72;;;9.50;99.90;;;;;;4967708;28;20059;-68
2023/10/07 02:00:05;;;;;;;10.43;5.40;;;9.60;99.90;;;;;;4969693;28;20069;-68
2023/10/07 02:02:31;;;;;;;10.02;5.85;;;9.50;99.90;;;;;;4967694;28;20471;-68
2023/10/07 02:04:57;;;;;;;11.87;5.97;;;9.50;99.90;;;;;;4969250;28;20117;-68
2023/10/07 02:07:22;;;;;;;9.40;5.57;;;9.50;99.90;;;;;;4968559;28;20705;-68
2023/10/07 02:09:48;;;;;;;10.13;5.53;;;9.40;99.90;;;;;;4998423;28;20043;-65
2023/10/07 02:12:18;;;;;;;8.50;5.33;;;9.40;99.90;;;;;;4999023;28;20039;-68
2023/10/07 02:14:44;;;;;;;12.52;5.72;;;9.40;99.90;;;;;;4963021;28;20035;-67
2023/10/07 02:17:12;;;;;;;11.85;5.65;;;9.40;99.90;;;;;;4968569;28;20019;-68
2023/10/07 02:19:40;;;;;;;11.20;4.65;;;9.40;99.90;;;;;;4969171;28;20031;-67
2023/10/07 02:22:20;;;;;;;15.68;5.20;;;9.30;99.90;;;;;;4965186;28;20026;-69
2023/10/07 02:24:52;;;;;;;11.25;5.53;;;9.30;99.90;;;;;;4967715;28;20042;-67
2023/10/07 02:27:19;;;;;;;11.60;5.82;;;9.40;99.90;;;;;;4963033;28;20034;-69
2023/10/07 02:29:48;;;;;;;14.13;5.65;;;9.40;99.90;;;;;;4963894;28;20078;-68
2023/10/07 02:32:17;;;;;;;13.55;5.82;;;9.30;99.90;;;;;;4967282;28;20049;-66
2023/10/07 02:34:54;;;;;;;10.43;4.95;;;9.30;99.90;;;;;;4997749;28;20026;-68
2023/10/07 02:37:21;;;;;;;17.50;6.47;;;9.20;99.90;;;;;;4962825;28;20506;-67
2023/10/07 02:39:54;;;;;;;;;;;9.20;99.90;;;;;;4967702;28;20522;-67
2023/10/07 02:42:28;;;;;;;13.93;6.10;;;9.30;99.90;;;;;;4963741;28;19977;-68
2023/10/07 02:48:01;;;;;;;10.38;5.97;;;9.40;99.90;;;;;;4981220;28;20122;-68
2023/10/07 02:50:29;;;;;;;15.05;5.20;;;9.30;99.90;;;;;;4963939;28;20109;-69
2023/10/07 02:52:57;;;;;;;11.98;5.50;;;9.30;99.90;;;;;;4968979;28;20042;-67
2023/10/07 02:57:55;;;;;;;8.13;5.13;;;9.30;99.90;;;;;;4967232;28;20037;-68
2023/10/07 03:00:49;;;;;;;22.25;5.40;;;9.30;99.90;;;;;;4969226;28;20027;-68
2023/10/07 03:06:08;;;;;;;10.48;5.35;;;9.20;99.90;;;;;;4969573;28;20035;-68
2023/10/07 03:08:47;;;;;;;12.07;5.63;;;9.30;99.90;;;;;;4970413;28;20134;-65
2023/10/07 03:11:20;;;;;;;12.93;5.57;;;9.20;99.90;;;;;;4970461;28;20038;-66
2023/10/07 03:13:47;;;;;;;10.80;5.47;;;9.20;99.90;;;;;;4965911;28;20799;-67
2023/10/07 03:18:56;;;;;;;12.63;5.80;;;9.10;99.90;;;;;;4967317;28;20039;-68
2023/10/07 03:21:35;;;;;;;16.70;5.30;;;9.10;99.90;;;;;;4962237;28;20061;-65
2023/10/07 03:24:01;;;;;;;15.95;6.80;;;9.10;99.90;;;;;;4957675;28;20081;-67
2023/10/07 03:26:32;;;;;;;11.27;6.25;;;9.10;99.90;;;;;;4967372;28;20058;-67
2023/10/07 03:28:58;;;;;;;8.77;5.50;;;9.10;99.90;;;;;;4967344;28;20577;-68
2023/10/07 03:34:22;;;;;;;13.40;5.40;;;9.10;99.90;;;;;;4979049;28;20039;-66
2023/10/07 03:39:55;;;;;;;11.80;6.25;;;9.00;99.90;;;;;;4966310;28;20928;-66
2023/10/07 03:42:20;;;;;;;9.02;5.20;;;8.90;99.90;;;;;;4960049;28;20019;-68
2023/10/07 03:44:46;;;;;;;13.53;5.83;;;8.80;99.90;;;;;;4967061;28;20106;-68
2023/10/07 03:47:15;;;;;;;8.77;5.50;;;8.80;99.90;;;;;;4968035;28;20045;-69
2023/10/07 03:49:41;;;;;;;7.82;5.10;;;8.90;99.90;;;;;;4965266;28;20027;-66
2023/10/07 03:52:08;;;;;;;12.57;5.75;;;8.80;99.90;;;;;;4967035;28;20026;-68
2023/10/07 03:54:40;;;;;;;13.02;5.75;;;8.90;99.90;;;;;;4967197;28;20062;-67
2023/10/07 03:57:07;;;;;;;8.80;5.18;;;8.80;99.90;;;;;;4964633;28;20031;-69
2023/10/07 03:59:39;;;;;;;16.98;5.05;;;8.90;99.90;;;;;;4967554;28;20500;-68
2023/10/07 04:05:10;;;;;;;11.77;6.00;;;8.80;99.90;;;;;;4965382;28;20062;-67
2023/10/07 04:07:36;;;;;;;12.85;5.40;;;8.80;99.90;;;;;;4967317;28;20601;-68
2023/10/07 04:10:15;;;;;;;;;;;8.70;99.90;;;;;;4965937;28;20411;-69
2023/10/07 04:12:43;;;;;;;9.00;4.80;;;8.80;99.90;;;;;;4967182;28;19952;-69
2023/10/07 04:15:12;;;;;;;12.43;5.93;;;8.80;99.90;;;;;;4966356;28;20026;-68
2023/10/07 04:17:38;;;;;;;12.35;6.45;;;8.70;99.90;;;;;;4966463;28;20030;-69
2023/10/07 04:20:18;;;;;;;11.25;5.97;;;8.70;99.90;;;;;;4967116;28;20027;-66
2023/10/07 04:22:45;;;;;;;10.85;5.28;;;8.60;99.90;;;;;;4966703;28;20051;-65
2023/10/07 04:25:17;;;;;;;12.88;5.80;;;8.60;99.90;;;;;;4967037;28;20058;-66
2023/10/07 04:27:43;;;;;;;9.80;5.25;;;8.60;99.90;;;;;;4963714;28;20049;-65
2023/10/07 04:30:11;;;;;;;10.70;5.60;;;8.60;99.90;;;;;;4968191;28;20498;-65
2023/10/07 04:32:49;;;;;;;11.32;5.85;;;8.60;99.90;;;;;;4967463;28;20301;-69
2023/10/07 04:35:20;;;;;;;11.65;5.93;;;8.50;99.90;;;;;;4965275;28;20034;-65
2023/10/07 04:37:54;;;;;;;19.52;6.72;;;8.70;99.90;;;;;;4967661;28;20035;-67
2023/10/07 04:45:37;;;;;;;12.18;6.72;;;8.50;99.90;;;;;;4964494;28;20053;-65
2023/10/07 04:48:24;;;;;;;10.80;6.00;;;8.50;99.90;;;;;;4962044;28;20338;-65
2023/10/07 04:51:05;;;;;;;11.77;6.28;;;8.50;99.90;;;;;;4965404;28;20046;-65
2023/10/07 04:53:40;;;;;;;14.68;6.45;;;8.50;99.90;;;;;;4971425;28;20113;-68
2023/10/07 04:56:07;;;;;;;10.25;6.47;;;8.50;99.90;;;;;;4968149;28;20082;-66
2023/10/07 04:58:33;;;;;;;10.65;5.90;;;8.50;99.90;;;;;;4966256;28;20037;-68
2023/10/07 05:01:06;;;;;;;10.07;5.88;;;8.50;99.90;;;;;;4963189;28;20122;-69
2023/10/07 05:03:31;;;;;;;11.57;6.30;;;8.50;99.90;;;;;;4966344;28;20522;-68
2023/10/07 05:05:58;;;;;;;13.13;5.80;;;8.50;99.90;;;;;;4966987;28;20130;-67
2023/10/07 05:08:24;;;;;;;9.70;6.35;;;8.40;99.90;;;;;;4964868;28;20109;-68
2023/10/07 05:10:52;;;;;;;18.57;7.10;;;8.40;99.90;;;;;;4967010;28;20178;-68
2023/10/07 05:13:18;;;;;;;11.48;6.55;;;8.40;99.90;;;;;;4999227;28;20318;-67
2023/10/07 05:15:44;;;;;;;13.90;7.03;;;8.40;99.90;;;;;;4967434;28;20030;-67
2023/10/07 05:18:12;;;;;;;12.57;6.28;;;8.40;99.90;;;;;;4958397;28;20035;-67
2023/10/07 05:20:46;;;;;;;14.48;6.90;;;8.40;99.90;;;;;;4961320;28;20470;-66
2023/10/07 05:23:17;;;;;;;13.93;6.90;;;8.40;99.90;;;;;;4964698;28;20133;-69
2023/10/07 05:25:49;;;;;;;20.33;7.45;;;8.40;99.90;;;;;;4963655;28;20031;-64
2023/10/07 05:28:22;;;;;;;15.88;7.43;;;8.40;99.90;;;;;;4955943;28;20506;-67
2023/10/07 05:30:52;;;;;;;16.63;7.47;;;8.30;99.90;;;;;;4956362;28;20684;-68
2023/10/07 05:33:25;;;;;;;12.77;7.00;;;8.40;99.90;;;;;;4971276;28;20034;-68
2023/10/07 05:35:59;;;;;;;14.52;6.55;;;8.40;99.90;;;;;;4967763;28;20049;-68
2023/10/07 05:38:25;;;;;;;11.20;6.18;;;8.30;99.90;;;;;;4965927;28;20041;-67
2023/10/07 05:40:52;;;;;;;20.35;7.90;;;8.30;99.90;;;;;;4974410;28;20019;-68
2023/10/07 05:43:17;;;;;;;15.98;6.95;;;8.30;99.90;;;;;;4973369;28;20077;-69
2023/10/07 05:45:45;;;;;;;14.07;6.40;;;8.40;99.90;;;;;;4967917;28;20458;-68
2023/10/07 05:48:11;;;;;;;14.93;6.93;;;8.40;99.90;;;;;;4967428;28;20043;-68
2023/10/07 05:50:38;;;;;;;12.82;6.65;;;8.40;99.90;;;;;;4963753;28;20129;-69
2023/10/07 05:53:05;;;;;;;14.88;6.72;;;8.40;99.90;;;;;;4973427;28;20039;-64
2023/10/07 05:55:34;;;;;;;;;;;8.40;99.90;;;;;;4970402;28;20026;-66
2023/10/07 05:58:02;;;;;;;22.10;7.80;;;8.50;99.90;;;;;;4969811;28;19914;-68
2023/10/07 06:00:35;;;;;;;9.05;5.90;;;8.40;99.90;;;;;;4971147;28;20023;-65
2023/10/07 06:03:06;;;;;;;11.13;6.07;;;8.50;99.90;;;;;;4970364;28;20435;-67
2023/10/07 06:05:38;;;;;;;11.10;5.72;;;8.40;99.90;;;;;;4971260;28;20034;-67
2023/10/07 06:08:05;;;;;;;14.27;5.63;;;8.50;99.90;;;;;;4970188;28;20043;-69
2023/10/07 06:10:33;;;;;;;11.73;6.22;;;8.50;99.90;;;;;;4970553;28;20109;-68
2023/10/07 06:13:14;;;;;;;12.27;5.63;;;8.60;99.90;;;;;;4983490;28;20039;-66
2023/10/07 06:15:40;;;;;;;13.70;6.00;;;8.60;99.90;;;;;;4968158;28;20030;-65
2023/10/07 06:18:07;;;;;;;9.80;5.97;;;8.60;99.90;;;;;;4968776;28;20039;-66
2023/10/07 06:20:37;;;;;;;8.25;5.38;;;8.60;99.90;;;;;;4996859;28;20042;-66
2023/10/07 06:23:16;;;;;;;15.75;6.15;;;8.70;99.90;;;;;;4969857;28;20121;-63
2023/10/07 06:25:53;;;;;;;10.73;5.68;;;8.60;99.90;;;;;;4963999;28;20497;-64
2023/10/07 06:28:29;;;;;;;11.70;6.10;;;8.70;99.90;;;;;;4965115;28;20106;-65
2023/10/07 06:31:22;;;;;;;8.60;5.55;;;8.70;99.90;;;;;;4971862;28;20026;-66
2023/10/07 06:33:59;;;;;;;15.02;7.05;;;8.70;99.90;;;;;;4964537;28;20503;-65
2023/10/07 06:36:27;;;;;;;9.15;5.90;;;8.70;99.90;;;;;;4962416;28;20030;-66
2023/10/07 06:38:58;;;;;;;15.65;6.65;;;8.80;99.90;;;;;;4969364;28;20034;-67
2023/10/07 06:41:29;;;;;;;14.10;6.57;;;8.80;99.90;;;;;;4966646;28;20132;-66
2023/10/07 06:43:59;;;;;;;12.48;6.70;;;8.90;99.90;;;;;;4966055;28;20041;-66
2023/10/07 06:46:48;;;;;;;11.45;6.43;;;9.00;99.90;;;;;;4970266;28;20494;-66
2023/10/07 06:49:20;;;;;;;11.10;5.88;;;9.00;99.90;;;;;;4969210;28;20548;-66
2023/10/07 06:51:53;;;;;;;15.02;7.07;;;9.10;99.90;;;;;;4965276;28;20117;-66
2023/10/07 06:54:31;;;;;;;13.95;6.78;;;9.20;99.90;;;;;;4968331;28;20122;-65
2023/10/07 06:56:58;;;;;;;14.45;7.13;;;9.30;99.90;;;;;;4973024;28;20552;-65
2023/10/07 06:59:27;;;;;;;13.25;7.72;;;9.40;99.90;;;;;;4970722;28;20026;-66
2023/10/07 07:01:54;;;;;;;17.83;7.70;;;10.00;99.90;;;;;;4969436;28;20027;-65
2023/10/07 07:04:22;;;;;;;;;;;10.90;99.90;;;;;;4962030;28;20035;-65
2023/10/07 07:07:09;;;;;;;19.88;7.57;;;10.90;99.90;;;;;;4969157;28;19914;-66
2023/10/07 07:12:22;;;;;;;11.20;6.47;;;10.70;99.90;;;;;;4968350;28;20058;-64
2023/10/07 07:15:08;;;;;;;20.85;7.43;;;10.90;99.90;;;;;;4972634;28;20118;-67
2023/10/07 07:22:45;;;;;;;15.20;7.15;;;13.50;99.90;;;;;;4997423;28;20133;-68
2023/10/07 07:25:29;;;;;;;16.45;6.15;;;14.90;97.80;;;;;;4972359;28;20499;-65
2023/10/07 07:27:58;;;;;;;14.85;6.60;;;15.40;93.90;;;;;;4969885;28;20039;-65
2023/10/07 07:30:30;;;;;;;18.95;6.20;;;13.60;97.90;;;;;;4966568;28;20644;-65
2023/10/07 07:32:59;;;;;;;18.63;6.75;;;12.60;99.90;;;;;;4971851;28;20038;-65
2023/10/07 07:35:43;;;;;;;16.70;6.75;;;12.80;99.90;;;;;;4995926;28;20035;-65
2023/10/07 07:40:49;;;;;;;15.10;6.53;;;12.80;99.90;;;;;;4999577;28;20118;-66
2023/10/07 07:43:19;;;;;;;18.90;7.32;;;12.60;99.90;;;;;;4970378;28;20060;-66
2023/10/07 07:45:46;;;;;;;14.65;6.55;;;12.90;99.90;;;;;;4968642;28;20141;-68
2023/10/07 07:48:12;;;;;;;18.40;6.90;;;13.30;99.90;;;;;;4968777;28;20084;-66
2023/10/07 07:50:40;;;;;;;17.48;6.90;;;13.50;99.90;;;;;;4971030;28;20451;-64
2023/10/07 07:53:09;;;;;;;19.13;12.23;;;14.70;99.10;;;;;;5006235;28;20544;-65
2023/10/07 07:55:37;;;;;;;16.95;7.43;;;15.90;93.50;;;;;;4969707;28;20031;-65
2023/10/07 07:58:04;;;;;;;17.48;7.20;;;14.90;95.50;;;;;;4970770;28;20100;-66
2023/10/07 08:00:31;;;;;;;13.50;6.85;;;15.00;95.70;;;;;;4969314;28;20459;-67
2023/10/07 08:03:03;;;;;;;11.95;6.78;;;17.00;92.00;;;;;;4970532;28;20720;-64
2023/10/07 08:05:33;;;;;;;15.38;7.57;;;19.30;83.10;;;;;;4971809;28;20138;-64
2023/10/07 08:07:59;;;;;;;15.10;6.75;;;19.70;78.80;;;;;;4964718;28;20256;-64
2023/10/07 08:10:28;;;;;;;14.43;8.10;;;21.60;73.10;;;;;;5002963;28;20034;-65
2023/10/07 08:12:54;;;;;;;19.30;7.10;;;21.60;69.90;;;;;;4968012;28;20054;-65
2023/10/07 08:15:23;;;;;;;19.10;7.63;;;22.40;68.10;;;;;;5002716;28;20596;-65
2023/10/07 08:17:56;;;;;;;16.25;7.15;;;23.40;65.60;;;;;;4969417;28;20034;-64
2023/10/07 08:20:33;;;;;;;14.52;6.55;;;23.60;64.50;;;;;;4969859;28;20062;-65
2023/10/07 08:23:07;;;;;;;14.35;6.95;;;24.20;63.80;;;;;;4969941;28;20037;-65
2023/10/07 08:25:58;;;;;;;14.98;7.25;;;24.10;61.30;;;;;;4968963;28;20057;-65
2023/10/07 08:28:38;;;;;;;13.23;7.20;;;24.50;61.80;;;;;;4964095;28;20038;-65
2023/10/07 08:31:13;;;;;;;19.00;6.90;;;25.30;61.50;;;;;;4967592;28;20034;-67
2023/10/07 08:33:40;;;;;;;18.10;7.13;;;25.60;60.80;;;;;;4966362;28;20028;-66
2023/10/07 08:36:07;;;;;;;15.80;6.60;;;26.00;58.80;;;;;;4961164;28;20038;-67
2023/10/07 08:38:50;;;;;;;13.68;7.38;;;26.20;58.40;;;;;;4971038;28;20121;-65
2023/10/07 08:41:18;;;;;;;12.15;6.80;;;25.90;58.90;;;;;;4970555;28;20026;-65
2023/10/07 08:43:45;;;;;;;12.30;6.45;;;26.20;58.50;;;;;;4968620;28;20077;-65
2023/10/07 08:46:19;;;;;;;12.18;7.00;;;26.60;56.60;;;;;;5000125;28;20034;-65
2023/10/07 08:48:58;;;;;;;17.95;7.13;;;26.80;56.50;;;;;;4966238;28;20089;-67
2023/10/07 08:51:27;;;;;;;12.50;6.57;;;26.90;56.10;;;;;;4966341;28;20026;-65
2023/10/07 08:54:05;;;;;;;19.92;6.90;;;26.80;56.50;;;;;;4966786;28;20051;-65
2023/10/07 08:56:36;;;;;;;15.00;7.38;;;26.90;56.80;;;;;;4966436;28;20062;-65
2023/10/07 08:59:12;;;;;;;10.05;6.50;;;27.60;57.00;;;;;;4967683;28;20037;-66
2023/10/07 09:01:42;;;;;;;12.10;6.88;;;27.70;55.90;;;;;;4965944;28;20043;-66
2023/10/07 09:04:08;;;;;;;22.65;8.73;;;27.80;57.50;;;;;;4974308;28;20118;-68
2023/10/07 09:06:45;;;;;;;21.58;7.30;;;27.90;57.10;;;;;;4968164;28;20178;-65
2023/10/07 09:09:11;;;;;;;14.13;8.07;;;27.20;56.70;;;;;;4965718;28;20027;-67
2023/10/07 09:11:38;;;;;;;12.70;7.82;;;;;;;;;;5001396;28;20030;-67
2023/10/07 09:14:07;;;;;;;19.35;7.28;;;27.70;55.60;;;;;;4970112;28;20078;-66
2023/10/07 09:16:34;;;;;;;20.05;9.00;;;28.30;56.70;;;;;;4972112;28;20033;-66
2023/10/07 09:19:03;;;;;;;14.30;8.20;;;27.70;54.50;;;;;;4965681;28;20030;-67
2023/10/07 09:21:33;;;;;;;14.43;8.15;;;27.50;56.60;;;;;;5001312;28;20108;-67
2023/10/07 09:24:03;;;;;;;19.48;7.60;;;28.20;55.30;;;;;;4970225;28;20400;-65
2023/10/07 09:26:36;;;;;;;24.67;8.30;;;27.50;55.60;;;;;;4969326;28;20058;-68
2023/10/07 09:29:15;;;;;;;15.35;8.70;;;25.60;57.50;;;;;;4971585;28;20177;-66
2023/10/07 09:31:46;;;;;;;13.43;8.27;;;24.50;61.60;;;;;;4968447;28;20038;-66
2023/10/07 09:34:29;;;;;;;16.33;8.05;;;23.20;65.10;;;;;;4968216;28;20570;-68
2023/10/07 09:36:57;;;;;;;21.00;8.38;;;22.40;65.60;;;;;;4967254;28;20403;-68
2023/10/07 09:39:34;;;;;;;18.55;8.65;;;22.40;67.90;;;;;;4965660;28;20026;-65
2023/10/07 09:42:05;;;;;;;15.13;7.90;;;22.60;68.90;;;;;;4971228;28;20031;-69
2023/10/07 09:44:31;;;;;;;13.63;7.43;;;20.90;73.10;;;;;;4968532;28;20042;-67
2023/10/07 09:47:10;;;;;;;19.08;8.30;;;20.60;76.80;;;;;;4970030;28;20030;-68
2023/10/07 09:49:36;;;;;;;11.00;7.07;;;20.80;72.80;;;;;;4968669;28;20022;-69
2023/10/07 09:52:18;;;;;;;13.82;6.85;;;20.00;75.50;;;;;;4969775;28;20352;-68
2023/10/07 09:54:55;;;;;;;12.43;6.88;;;19.50;77.30;;;;;;4967490;28;20038;-67
2023/10/07 09:57:42;;;;;;;;;;;19.60;77.80;;;;;;4971456;28;20033;-65
2023/10/07 10:00:40;;;;;;;16.50;8.10;;;19.40;80.90;;;;;;4969329;28;19920;-67
2023/10/07 10:03:44;;;;;;;14.60;7.50;;;19.20;79.30;;;;;;4970129;28;20098;-65
2023/10/07 10:06:16;;;;;;;14.57;7.65;;;19.20;81.70;;;;;;4970750;28;20049;-66
2023/10/07 10:08:57;;;;;;;16.17;7.05;;;19.10;79.30;;;;;;4965981;28;20042;-67
2023/10/07 10:11:30;;;;;;;15.20;6.75;;;18.90;81.80;;;;;;4972563;28;20066;-65
2023/10/07 10:14:14;;;;;;;19.52;7.22;;;19.00;82.70;;;;;;4968949;28;20031;-64
2023/10/07 10:17:11;;;;;;;12.13;6.57;;;19.00;83.30;;;;;;4971178;28;20407;-65
2023/10/07 10:19:49;;;;;;;10.77;6.32;;;18.80;84.40;;;;;;4969101;28;20069;-64
2023/10/07 10:22:24;;;;;;;16.40;7.45;;;18.70;84.20;;;;;;4968174;28;20031;-64
2023/10/07 10:24:54;;;;;;;17.77;7.20;;;18.80;84.20;;;;;;4968438;28;20042;-65
2023/10/07 10:27:21;;;;;;;15.75;7.85;;;18.60;86.10;;;;;;4970787;28;20073;-64
2023/10/07 10:30:04;;;;;;;16.02;7.60;;;18.50;85.50;;;;;;4972160;28;20956;-66
2023/10/07 10:32:33;;;;;;;16.33;7.35;;;18.60;87.00;;;;;;4966472;28;20065;-64
2023/10/07 10:35:01;;;;;;;16.60;6.78;;;18.60;86.90;;;;;;4968203;28;20035;-65
2023/10/07 10:37:30;;;;;;;14.63;7.40;;;18.40;85.90;;;;;;4974923;28;20027;-67
2023/10/07 10:40:14;;;;;;;12.15;6.43;;;18.40;85.80;;;;;;4971488;28;20478;-64
2023/10/07 10:42:47;;;;;;;16.92;6.25;;;18.30;86.10;;;;;;4973370;28;20031;-64
2023/10/07 10:45:24;;;;;;;13.25;6.82;;;18.40;88.00;;;;;;4968009;28;20510;-66
2023/10/07 10:47:53;;;;;;;12.85;6.03;;;18.40;87.90;;;;;;4972228;28;20041;-65
2023/10/07 10:50:22;;;;;;;12.30;5.32;;;18.50;86.80;;;;;;4971226;28;20031;-64
2023/10/07 10:52:48;;;;;;;11.57;6.00;;;18.60;87.00;;;;;;4971959;28;20030;-64
2023/10/07 10:55:17;;;;;;;;;;;18.50;86.30;;;;;;4968072;28;20037;-66
2023/10/07 10:57:43;;;;;;;10.00;5.53;;;18.50;84.80;;;;;;4972082;28;19924;-65
2023/10/07 11:00:19;;;;;;;14.18;6.15;;;18.50;85.70;;;;;;4969789;28;20518;-64
2023/10/07 11:02:46;;;;;;;14.55;6.45;;;18.60;86.40;;;;;;4967879;28;20101;-65
2023/10/07 11:05:15;;;;;;;15.23;6.25;;;18.70;84.70;;;;;;4968857;28;20043;-69
2023/10/07 11:07:43;;;;;;;13.57;6.53;;;18.70;84.20;;;;;;4969772;28;20029;-65
2023/10/07 11:10:10;;;;;;;14.55;6.32;;;18.60;84.80;;;;;;4967341;28;20403;-65
2023/10/07 11:12:37;;;;;;;15.15;5.28;;;18.60;85.80;;;;;;4965518;28;20037;-64
2023/10/07 11:15:07;;;;;;;11.95;5.35;;;18.60;85.80;;;;;;4967737;28;20170;-69
2023/10/07 11:17:37;;;;;;;14.90;5.78;;;18.60;85.00;;;;;;4972667;28;20037;-66
2023/10/07 11:20:08;;;;;;;9.82;5.30;;;18.70;85.20;;;;;;4962303;28;20043;-65
2023/10/07 11:22:37;;;;;;;19.70;5.80;;;18.70;84.50;;;;;;4967325;28;20491;-65
2023/10/07 11:25:06;;;;;;;14.77;6.03;;;18.80;86.70;;;;;;4969917;28;20044;-65
2023/10/07 11:27:32;;;;;;;11.65;5.47;;;18.80;84.00;;;;;;4970211;28;20023;-65
2023/10/07 11:30:02;;;;;;;14.05;5.47;;;18.80;83.90;;;;;;4969574;28;20038;-65
2023/10/07 11:32:31;;;;;;;13.10;5.32;;;18.90;85.00;;;;;;4969991;28;20050;-65
2023/10/07 11:34:59;;;;;;;14.75;5.70;;;19.10;85.10;;;;;;4963926;28;20525;-64
2023/10/07 11:37:26;;;;;;;13.52;5.35;;;19.20;83.70;;;;;;4969272;28;20097;-65
2023/10/07 11:39:53;;;;;;;12.77;5.28;;;19.20;84.90;;;;;;4969540;28;20035;-69
2023/10/07 11:42:22;;;;;;;13.48;5.22;;;19.30;82.30;;;;;;4969114;28;20507;-68
2023/10/07 11:44:55;;;;;;;12.18;4.65;;;19.50;83.00;;;;;;4968971;28;20093;-68
2023/10/07 11:47:24;;;;;;;11.98;4.78;;;19.70;83.10;;;;;;4970856;28;20519;-69
2023/10/07 11:49:50;;;;;;;11.82;5.93;;;19.90;81.40;;;;;;4972872;28;20031;-64
2023/10/07 11:52:19;;;;;;;13.60;5.33;;;20.00;81.80;;;;;;4973965;28;20031;-66
2023/10/07 11:54:46;;;;;;;8.60;4.82;;;20.10;79.90;;;;;;4969707;28;20294;-65
2023/10/07 11:57:12;;;;;;;11.30;5.45;;;20.10;80.80;;;;;;4969423;28;20031;-66
2023/10/07 11:59:41;;;;;;;13.20;5.40;;;20.20;80.90;;;;;;4975047;28;20042;-64
2023/10/07 12:02:11;;;;;;;11.80;5.68;;;20.30;80.40;;;;;;4969197;28;20033;-65
2023/10/07 12:04:46;;;;;;;12.50;5.60;;;20.40;78.80;;;;;;4969850;28;20158;-65
2023/10/07 12:07:14;;;;;;;9.00;5.15;;;20.50;82.40;;;;;;4955720;28;20042;-64
2023/10/07 12:09:48;;;;;;;12.57;5.85;;;20.50;79.70;;;;;;5002212;28;20095;-64
2023/10/07 12:12:15;;;;;;;15.85;5.72;;;20.60;78.40;;;;;;4971135;28;20045;-67
2023/10/07 12:14:40;;;;;;;13.23;5.05;;;20.70;80.10;;;;;;4972078;28;20084;-65
2023/10/07 12:17:07;;;;;;;21.10;6.13;;;20.80;79.70;;;;;;4969977;28;20035;-64
2023/10/07 12:19:34;;;;;;;12.60;5.65;;;20.80;79.60;;;;;;4967294;28;20030;-65
2023/10/07 12:22:00;;;;;;;11.57;5.10;;;20.90;80.70;;;;;;4971588;28;20406;-65
2023/10/07 12:24:26;;;;;;;12.85;4.93;;;21.10;79.80;;;;;;4971449;28;20039;-63
2023/10/07 12:26:54;;;;;;;;;;;21.00;80.30;;;;;;4970032;28;20478;-64
2023/10/07 12:29:20;;;;;;;7.70;4.78;;;21.30;77.60;;;;;;4970760;28;19942;-66
2023/10/07 12:31:47;;;;;;;11.93;5.03;;;21.20;75.60;;;;;;4971690;28;20107;-66
2023/10/07 12:34:15;;;;;;;13.35;5.03;;;21.20;80.00;;;;;;4966079;28;20037;-64
2023/10/07 12:36:41;;;;;;;7.47;4.53;;;21.20;77.90;;;;;;4986638;28;20073;-67
2023/10/07 12:39:10;;;;;;;8.48;4.57;;;21.30;77.10;;;;;;4967029;28;20061;-65
2023/10/07 12:41:37;;;;;;;10.52;4.18;;;21.40;77.20;;;;;;4965800;28;20380;-68
2023/10/07 12:44:04;;;;;;;7.65;4.70;;;21.20;77.50;;;;;;4969539;28;20101;-66
2023/10/07 12:46:30;;;;;;;9.00;4.47;;;21.40;76.30;;;;;;4973582;28;20104;-66
2023/10/07 12:48:55;;;;;;;9.03;4.97;;;21.10;75.10;;;;;;4969888;28;20840;-65
2023/10/07 12:51:21;;;;;;;13.10;4.50;;;21.20;74.30;;;;;;4969372;28;20282;-66
2023/10/07 12:53:46;;;;;;;10.87;4.90;;;21.20;76.70;;;;;;4967764;28;20045;-65
2023/10/07 12:56:14;;;;;;;10.60;4.72;;;21.10;78.20;;;;;;4972427;28;20169;-65
2023/10/07 12:58:39;;;;;;;9.65;4.30;;;21.50;77.50;;;;;;4968897;28;20038;-65
2023/10/07 13:01:11;;;;;;;9.73;4.50;;;21.60;75.40;;;;;;4972336;28;20027;-65
2023/10/07 13:03:43;;;;;;;7.95;4.30;;;21.50;75.30;;;;;;4976016;28;20052;-66
2023/10/07 13:06:10;;;;;;;7.97;3.85;;;21.60;76.60;;;;;;4972437;28;20613;-66
2023/10/07 13:08:38;;;;;;;5.88;3.75;;;21.60;73.70;;;;;;4970964;28;20423;-65
2023/10/07 13:11:11;;;;;;;9.60;4.40;;;21.70;74.20;;;;;;4973043;28;20035;-65
2023/10/07 13:13:38;;;;;;;8.82;3.85;;;21.60;74.00;;;;;;4968002;28;20403;-66
2023/10/07 13:16:10;;;;;;;7.75;3.83;;;21.70;74.80;;;;;;4973975;28;20521;-66
2023/10/07 13:18:44;;;;;;;6.60;3.88;;;21.70;74.90;;;;;;4975843;28;20031;-65
2023/10/07 13:21:18;;;;;;;10.32;3.97;;;21.60;69.60;;;;;;4977175;28;20038;-67
2023/10/07 13:23:47;;;;;;;12.65;4.38;;;21.40;71.80;;;;;;4972752;28;20430;-65
2023/10/07 13:26:14;;;;;;;6.85;3.50;;;21.70;74.40;;;;;;4975205;28;20045;-65
2023/10/07 13:28:41;;;;;;;7.00;3.80;;;21.70;74.00;;;;;;4974585;28;20030;-65
2023/10/07 13:31:08;;;;;;;6.95;3.65;;;21.70;72.70;;;;;;4975434;28;20038;-65
2023/10/07 13:33:36;;;;;;;12.52;4.80;;;21.70;73.80;;;;;;4970211;28;20030;-65
2023/10/07 13:36:02;;;;;;;7.47;3.65;;;21.70;71.50;;;;;;4971614;28;20039;-67
2023/10/07 13:38:29;;;;;;;7.85;4.05;;;21.70;71.30;;;;;;4970046;28;20035;-66
2023/10/07 13:40:55;;;;;;;7.07;3.47;;;21.70;70.90;;;;;;4973121;28;20038;-67
2023/10/07 13:43:21;;;;;;;7.63;3.92;;;21.70;72.20;;;;;;4971168;28;20038;-66